sensor_id;sensor_type;location;lat;lon;timestamp;pressure;altitude;pressure_sealevel;temperature;humidity
48800;BME280;34611;47.964;7.982;2023-04-15T00:04:11;95823.09;;;10.25;50.21
48800;BME280;34611;47.964;7.982;2023-04-15T00:11:11;95825.53;;;10.26;50.04
48800;BME280;34611;47.964;7.982;2023-04-15T00:18:12;95816.28;;;10.24;50.08
48800;BME280;34611;47.964;7.982;2023-04-15T00:25:12;95813.00;;;10.22;50.01
48800;BME280;34611;47.964;7.982;2023-04-15T00:32:12;95816.41;;;10.22;49.88
48800;BME280;34611;47.964;7.982;2023-04-15T00:39:14;95808.63;;;10.22;49.95
48800;BME280;34611;47.964;7.982;2023-04-15T00:46:16;95810.56;;;10.20;49.88
48800;BME280;34611;47.964;7.982;2023-04-15T00:53:18;95811.38;;;10.21;49.84
48800;BME280;34611;47.964;7.982;2023-04-15T01:00:19;95813.28;;;10.19;49.68
48800;BME280;34611;47.964;7.982;2023-04-15T01:07:19;95806.34;;;10.19;49.65
48800;BME280;34611;47.964;7.982;2023-04-15T01:14:20;95809.22;;;10.16;49.60
48800;BME280;34611;47.964;7.982;2023-04-15T01:21:20;95795.28;;;10.17;49.59
48800;BME280;34611;47.964;7.982;2023-04-15T01:28:21;95788.44;;;10.16;49.52
48800;BME280;34611;47.964;7.982;2023-04-15T01:35:21;95787.66;;;10.16;49.49
48800;BME280;34611;47.964;7.982;2023-04-15T01:42:21;95794.31;;;10.18;49.57
48800;BME280;34611;47.964;7.982;2023-04-15T01:49:22;95797.88;;;10.17;49.33
48800;BME280;34611;47.964;7.982;2023-04-15T01:56:23;95778.06;;;10.16;49.41
48800;BME280;34611;47.964;7.982;2023-04-15T02:03:24;95780.66;;;10.16;49.28
48800;BME280;34611;47.964;7.982;2023-04-15T02:10:26;95784.25;;;10.15;49.45
48800;BME280;34611;47.964;7.982;2023-04-15T02:17:26;95788.44;;;10.16;49.48
48800;BME280;34611;47.964;7.982;2023-04-15T02:24:27;95784.09;;;10.17;49.54
48800;BME280;34611;47.964;7.982;2023-04-15T02:31:27;95787.66;;;10.16;49.34
48800;BME280;34611;47.964;7.982;2023-04-15T02:38:28;95783.13;;;10.18;49.28
48800;BME280;34611;47.964;7.982;2023-04-15T02:45:28;95780.00;;;10.14;49.29
48800;BME280;34611;47.964;7.982;2023-04-15T02:52:29;95784.38;;;10.13;49.39
48800;BME280;34611;47.964;7.982;2023-04-15T02:59:29;95779.03;;;10.15;49.39
48800;BME280;34611;47.964;7.982;2023-04-15T03:06:30;95772.06;;;10.16;49.37
48800;BME280;34611;47.964;7.982;2023-04-15T03:13:30;95776.44;;;10.15;49.23
48800;BME280;34611;47.964;7.982;2023-04-15T03:20:32;95774.81;;;10.14;49.22
48800;BME280;34611;47.964;7.982;2023-04-15T03:27:33;95776.31;;;10.17;49.49
48800;BME280;34611;47.964;7.982;2023-04-15T03:34:35;95760.06;;;10.15;49.17
48800;BME280;34611;47.964;7.982;2023-04-15T03:41:35;95760.06;;;10.15;49.49
48800;BME280;34611;47.964;7.982;2023-04-15T03:48:36;95759.88;;;10.16;49.21
48800;BME280;34611;47.964;7.982;2023-04-15T03:55:36;95757.47;;;10.15;49.60
48800;BME280;34611;47.964;7.982;2023-04-15T04:02:37;95757.47;;;10.15;49.54
48800;BME280;34611;47.964;7.982;2023-04-15T04:09:37;95759.88;;;10.16;49.31
48800;BME280;34611;47.964;7.982;2023-04-15T04:16:39;95765.25;;;10.15;49.43
48800;BME280;34611;47.964;7.982;2023-04-15T04:23:40;95760.88;;;10.15;49.51
48800;BME280;34611;47.964;7.982;2023-04-15T04:30:40;95749.69;;;10.15;49.24
48800;BME280;34611;47.964;7.982;2023-04-15T04:37:43;95772.06;;;10.16;49.48
48800;BME280;34611;47.964;7.982;2023-04-15T04:44:43;95778.25;;;10.15;49.41
48800;BME280;34611;47.964;7.982;2023-04-15T04:51:44;95775.66;;;10.15;49.53
48800;BME280;34611;47.964;7.982;2023-04-15T04:58:46;95783.25;;;10.16;49.40
48800;BME280;34611;47.964;7.982;2023-04-15T05:05:46;95790.25;;;10.16;49.50
48800;BME280;34611;47.964;7.982;2023-04-15T05:12:48;95783.25;;;10.16;49.64
48800;BME280;34611;47.964;7.982;2023-04-15T05:19:49;95787.66;;;10.16;49.59
48800;BME280;34611;47.964;7.982;2023-04-15T05:26:49;95793.66;;;10.16;49.83
48800;BME280;34611;47.964;7.982;2023-04-15T05:33:50;95794.47;;;10.17;49.80
48800;BME280;34611;47.964;7.982;2023-04-15T05:40:50;95795.28;;;10.17;49.96
48800;BME280;34611;47.964;7.982;2023-04-15T05:47:50;95791.88;;;10.17;49.82
48800;BME280;34611;47.964;7.982;2023-04-15T05:54:53;95793.34;;;10.19;49.98
48800;BME280;34611;47.964;7.982;2023-04-15T06:01:53;95794.16;;;10.20;49.93
48800;BME280;34611;47.964;7.982;2023-04-15T06:08:53;95792.53;;;10.19;49.97
48800;BME280;34611;47.964;7.982;2023-04-15T06:15:54;95787.31;;;10.19;50.13
48800;BME280;34611;47.964;7.982;2023-04-15T06:22:55;95796.75;;;10.20;49.88
48800;BME280;34611;47.964;7.982;2023-04-15T06:29:56;95792.22;;;10.22;50.30
48800;BME280;34611;47.964;7.982;2023-04-15T06:36:56;95791.25;;;10.23;50.34
48800;BME280;34611;47.964;7.982;2023-04-15T06:43:56;95788.66;;;10.23;50.38
48800;BME280;34611;47.964;7.982;2023-04-15T06:50:57;95781.84;;;10.22;50.32
48800;BME280;34611;47.964;7.982;2023-04-15T06:57:57;95788.81;;;10.21;50.38
48800;BME280;34611;47.964;7.982;2023-04-15T07:04:58;95787.84;;;10.22;50.43
48800;BME280;34611;47.964;7.982;2023-04-15T07:11:58;95783.47;;;10.23;51.10
48800;BME280;34611;47.964;7.982;2023-04-15T07:18:58;95783.31;;;10.24;51.57
48800;BME280;34611;47.964;7.982;2023-04-15T07:25:59;95783.16;;;10.26;51.52
48800;BME280;34611;47.964;7.982;2023-04-15T07:32:59;95778.78;;;10.26;51.67
48800;BME280;34611;47.964;7.982;2023-04-15T07:40:00;95780.56;;;10.26;51.59
48800;BME280;34611;47.964;7.982;2023-04-15T07:47:01;95787.38;;;10.27;51.95
48800;BME280;34611;47.964;7.982;2023-04-15T07:54:01;95788.38;;;10.26;52.01
48800;BME280;34611;47.964;7.982;2023-04-15T08:01:03;95791.75;;;10.26;52.24
48800;BME280;34611;47.964;7.982;2023-04-15T08:08:03;95789.97;;;10.27;52.21
48800;BME280;34611;47.964;7.982;2023-04-15T08:15:04;95798.44;;;10.29;52.64
48800;BME280;34611;47.964;7.982;2023-04-15T08:22:04;95804.59;;;10.28;52.73
48800;BME280;34611;47.964;7.982;2023-04-15T08:29:05;95809.69;;;10.29;52.82
48800;BME280;34611;47.964;7.982;2023-04-15T08:36:05;95812.13;;;10.31;53.32
48800;BME280;34611;47.964;7.982;2023-04-15T08:43:10;95812.59;;;10.52;52.88
48800;BME280;34611;47.964;7.982;2023-04-15T08:50:12;95812.84;;;10.41;53.64
48800;BME280;34611;47.964;7.982;2023-04-15T08:57:14;95819.06;;;10.48;53.46
48800;BME280;34611;47.964;7.982;2023-04-15T09:04:14;95825.31;;;10.64;53.53
48800;BME280;34611;47.964;7.982;2023-04-15T09:11:15;95827.56;;;10.59;53.83
48800;BME280;34611;47.964;7.982;2023-04-15T09:32:23;95847.97;;;10.53;54.02
48800;BME280;34611;47.964;7.982;2023-04-15T09:39:25;95854.16;;;10.52;53.90
48800;BME280;34611;47.964;7.982;2023-04-15T09:46:41;95860.41;;;10.68;53.67
48800;BME280;34611;47.964;7.982;2023-04-15T09:53:42;95865.94;;;10.65;53.75
48800;BME280;34611;47.964;7.982;2023-04-15T10:00:42;95866.56;;;10.59;54.32
48800;BME280;34611;47.964;7.982;2023-04-15T10:07:42;95869.44;;;10.56;54.04
48800;BME280;34611;47.964;7.982;2023-04-15T10:14:43;95871.22;;;10.55;53.94
48800;BME280;34611;47.964;7.982;2023-04-15T10:21:43;95869.59;;;10.54;53.77
48800;BME280;34611;47.964;7.982;2023-04-15T10:28:44;95873.16;;;10.53;53.71
48800;BME280;34611;47.964;7.982;2023-04-15T10:35:46;95886.00;;;10.55;53.63
48800;BME280;34611;47.964;7.982;2023-04-15T10:42:47;95886.00;;;10.55;53.75
48800;BME280;34611;47.964;7.982;2023-04-15T10:49:49;95888.75;;;10.53;53.74
48800;BME280;34611;47.964;7.982;2023-04-15T10:56:52;95899.97;;;10.53;53.45
48800;BME280;34611;47.964;7.982;2023-04-15T11:04:05;95900.75;;;10.54;53.83
48800;BME280;34611;47.964;7.982;2023-04-15T11:11:06;95912.13;;;10.53;53.78
48800;BME280;34611;47.964;7.982;2023-04-15T11:18:16;95918.94;;;10.54;53.58
48800;BME280;34611;47.964;7.982;2023-04-15T11:25:23;95919.13;;;10.52;53.69
48800;BME280;34611;47.964;7.982;2023-04-15T11:32:25;95929.53;;;10.52;53.60
48800;BME280;34611;47.964;7.982;2023-04-15T11:39:25;95944.13;;;10.53;53.58
48800;BME280;34611;47.964;7.982;2023-04-15T11:46:31;95951.13;;;10.53;53.73
48800;BME280;34611;47.964;7.982;2023-04-15T11:53:38;95964.91;;;10.53;53.82
48800;BME280;34611;47.964;7.982;2023-04-15T12:00:40;95982.16;;;10.55;53.57
48800;BME280;34611;47.964;7.982;2023-04-15T12:07:56;95990.63;;;10.57;53.74
48800;BME280;34611;47.964;7.982;2023-04-15T12:14:56;95995.16;;;10.55;53.84
48800;BME280;34611;47.964;7.982;2023-04-15T12:21:59;96001.97;;;10.56;54.00
48800;BME280;34611;47.964;7.982;2023-04-15T12:29:00;96009.75;;;10.56;53.82
48800;BME280;34611;47.964;7.982;2023-04-15T12:36:01;96008.16;;;10.55;53.96
48800;BME280;34611;47.964;7.982;2023-04-15T12:43:02;96022.47;;;10.59;54.01
48800;BME280;34611;47.964;7.982;2023-04-15T12:50:02;96024.91;;;10.78;54.75
48800;BME280;34611;47.964;7.982;2023-04-15T12:57:02;96036.34;;;10.67;54.88
48800;BME280;34611;47.964;7.982;2023-04-15T13:04:03;96045.94;;;10.67;55.02
48800;BME280;34611;47.964;7.982;2023-04-15T13:11:03;96056.47;;;10.65;54.92
48800;BME280;34611;47.964;7.982;2023-04-15T13:18:05;96073.88;;;10.65;54.62
48800;BME280;34611;47.964;7.982;2023-04-15T13:25:06;96069.25;;;10.77;54.75
48800;BME280;34611;47.964;7.982;2023-04-15T13:32:07;96078.97;;;10.74;55.67
48800;BME280;34611;47.964;7.982;2023-04-15T13:39:07;96084.47;;;10.71;56.32
48800;BME280;34611;47.964;7.982;2023-04-15T13:46:07;96090.78;;;10.69;55.80
48800;BME280;34611;47.964;7.982;2023-04-15T13:53:07;96093.53;;;10.67;55.76
48800;BME280;34611;47.964;7.982;2023-04-15T14:00:08;96100.50;;;10.85;55.51
48800;BME280;34611;47.964;7.982;2023-04-15T14:07:08;96101.78;;;10.81;56.94
48800;BME280;34611;47.964;7.982;2023-04-15T14:14:08;96103.47;;;10.72;56.96
48800;BME280;34611;47.964;7.982;2023-04-15T14:21:09;96117.00;;;10.76;56.53
48800;BME280;34611;47.964;7.982;2023-04-15T14:28:09;96125.25;;;10.71;56.53
48800;BME280;34611;47.964;7.982;2023-04-15T14:35:09;96128.81;;;10.70;56.36
48800;BME280;34611;47.964;7.982;2023-04-15T14:42:10;96137.59;;;10.69;56.28
48800;BME280;34611;47.964;7.982;2023-04-15T14:49:10;96146.34;;;10.68;56.36
48800;BME280;34611;47.964;7.982;2023-04-15T14:56:10;96155.78;;;10.69;56.16
48800;BME280;34611;47.964;7.982;2023-04-15T15:03:11;96159.72;;;10.73;56.92
48800;BME280;34611;47.964;7.982;2023-04-15T15:10:11;96160.00;;;10.70;56.64
48800;BME280;34611;47.964;7.982;2023-04-15T15:17:12;96161.78;;;10.69;56.44
48800;BME280;34611;47.964;7.982;2023-04-15T15:24:12;96163.56;;;10.69;56.09
48800;BME280;34611;47.964;7.982;2023-04-15T15:31:13;96180.94;;;10.68;56.27
48800;BME280;34611;47.964;7.982;2023-04-15T15:38:13;96187.91;;;10.68;55.98
48800;BME280;34611;47.964;7.982;2023-04-15T15:45:16;96207.91;;;10.67;56.11
48800;BME280;34611;47.964;7.982;2023-04-15T15:52:16;96214.91;;;10.67;56.17
48800;BME280;34611;47.964;7.982;2023-04-15T15:59:17;96227.88;;;10.67;56.04
48800;BME280;34611;47.964;7.982;2023-04-15T16:06:17;96238.28;;;10.67;55.76
48800;BME280;34611;47.964;7.982;2023-04-15T16:13:17;96237.72;;;10.73;56.23
48800;BME280;34611;47.964;7.982;2023-04-15T16:20:17;96238.13;;;10.68;56.38
48800;BME280;34611;47.964;7.982;2023-04-15T16:27:18;96252.78;;;10.69;56.18
48800;BME280;34611;47.964;7.982;2023-04-15T16:34:18;96257.16;;;10.69;56.24
48800;BME280;34611;47.964;7.982;2023-04-15T16:41:18;96256.47;;;10.67;56.44
48800;BME280;34611;47.964;7.982;2023-04-15T16:48:19;96271.09;;;10.68;56.36
48800;BME280;34611;47.964;7.982;2023-04-15T16:55:20;96295.47;;;10.67;56.31
48800;BME280;34611;47.964;7.982;2023-04-15T17:02:20;96316.88;;;10.79;56.73
48800;BME280;34611;47.964;7.982;2023-04-15T17:09:20;96316.41;;;10.93;56.67
48800;BME280;34611;47.964;7.982;2023-04-15T17:16:21;96329.22;;;10.77;57.19
48800;BME280;34611;47.964;7.982;2023-04-15T17:23:21;96333.16;;;10.81;57.12
48800;BME280;34611;47.964;7.982;2023-04-15T17:30:21;96346.41;;;10.87;57.98
48800;BME280;34611;47.964;7.982;2023-04-15T17:37:22;96358.94;;;11.02;57.90
48800;BME280;34611;47.964;7.982;2023-04-15T17:44:22;96361.59;;;10.92;58.48
48800;BME280;34611;47.964;7.982;2023-04-15T17:51:22;96377.22;;;10.92;57.97
48800;BME280;34611;47.964;7.982;2023-04-15T17:58:22;96395.81;;;10.87;57.95
48800;BME280;34611;47.964;7.982;2023-04-15T18:05:23;96404.59;;;10.86;57.54
48800;BME280;34611;47.964;7.982;2023-04-15T18:12:23;96428.94;;;10.85;57.54
48800;BME280;34611;47.964;7.982;2023-04-15T18:19:23;96432.50;;;10.84;57.45
48800;BME280;34611;47.964;7.982;2023-04-15T18:26:24;96442.91;;;10.84;57.35
48800;BME280;34611;47.964;7.982;2023-04-15T18:33:27;96454.25;;;10.83;57.46
48800;BME280;34611;47.964;7.982;2023-04-15T18:40:27;96466.44;;;10.83;57.38
48800;BME280;34611;47.964;7.982;2023-04-15T18:47:27;96473.44;;;10.82;57.24
48800;BME280;34611;47.964;7.982;2023-04-15T18:54:27;96487.41;;;10.81;57.16
48800;BME280;34611;47.964;7.982;2023-04-15T19:01:30;96502.03;;;10.82;57.27
48800;BME280;34611;47.964;7.982;2023-04-15T19:08:30;96508.22;;;10.81;57.06
48800;BME280;34611;47.964;7.982;2023-04-15T19:15:30;96520.38;;;10.81;57.08
48800;BME280;34611;47.964;7.982;2023-04-15T19:22:33;96544.59;;;10.81;57.21
48800;BME280;34611;47.964;7.982;2023-04-15T19:29:34;96549.94;;;10.80;57.18
48800;BME280;34611;47.964;7.982;2023-04-15T19:36:34;96549.94;;;10.80;57.11
48800;BME280;34611;47.964;7.982;2023-04-15T19:43:34;96572.53;;;10.79;56.99
48800;BME280;34611;47.964;7.982;2023-04-15T19:50:35;96575.94;;;10.80;57.24
48800;BME280;34611;47.964;7.982;2023-04-15T19:57:36;96590.72;;;10.79;57.30
48800;BME280;34611;47.964;7.982;2023-04-15T20:04:36;96606.31;;;10.79;57.10
48800;BME280;34611;47.964;7.982;2023-04-15T20:11:36;96633.16;;;10.80;57.23
48800;BME280;34611;47.964;7.982;2023-04-15T20:18:36;96639.16;;;10.80;57.00
48800;BME280;34611;47.964;7.982;2023-04-15T20:25:37;96654.75;;;10.80;57.14
48800;BME280;34611;47.964;7.982;2023-04-15T20:32:37;96661.75;;;10.80;57.26
48800;BME280;34611;47.964;7.982;2023-04-15T20:39:38;96662.69;;;10.79;57.16
48800;BME280;34611;47.964;7.982;2023-04-15T20:46:38;96670.47;;;10.79;57.04
48800;BME280;34611;47.964;7.982;2023-04-15T20:53:39;96674.75;;;10.80;57.09
48800;BME280;34611;47.964;7.982;2023-04-15T21:00:40;96686.09;;;10.79;57.27
48800;BME280;34611;47.964;7.982;2023-04-15T21:07:41;96688.69;;;10.79;57.36
48800;BME280;34611;47.964;7.982;2023-04-15T21:14:41;96689.53;;;10.79;57.09
48800;BME280;34611;47.964;7.982;2023-04-15T21:21:41;96710.34;;;10.79;57.42
48800;BME280;34611;47.964;7.982;2023-04-15T21:28:42;96710.47;;;10.78;57.19
48800;BME280;34611;47.964;7.982;2023-04-15T21:35:42;96726.88;;;10.78;57.25
48800;BME280;34611;47.964;7.982;2023-04-15T21:42:42;96729.34;;;10.80;57.20
48800;BME280;34611;47.964;7.982;2023-04-15T21:49:42;96737.28;;;10.78;57.16
48800;BME280;34611;47.964;7.982;2023-04-15T21:56:43;96752.75;;;10.80;57.23
48800;BME280;34611;47.964;7.982;2023-04-15T22:03:43;96756.28;;;10.79;57.19
48800;BME280;34611;47.964;7.982;2023-04-15T22:10:43;96760.56;;;10.80;57.26
48800;BME280;34611;47.964;7.982;2023-04-15T22:17:43;96766.69;;;10.79;57.26
48800;BME280;34611;47.964;7.982;2023-04-15T22:24:44;96771.06;;;10.78;57.33
48800;BME280;34611;47.964;7.982;2023-04-15T22:31:44;96764.94;;;10.79;57.38
48800;BME280;34611;47.964;7.982;2023-04-15T22:38:45;96773.69;;;10.78;57.28
48800;BME280;34611;47.964;7.982;2023-04-15T22:45:48;96788.34;;;10.79;57.36
48800;BME280;34611;47.964;7.982;2023-04-15T22:52:49;96787.50;;;10.79;57.55
48800;BME280;34611;47.964;7.982;2023-04-15T22:59:49;96790.94;;;10.79;57.38
48800;BME280;34611;47.964;7.982;2023-04-15T23:06:52;96793.53;;;10.79;57.35
48800;BME280;34611;47.964;7.982;2023-04-15T23:13:52;96793.53;;;10.79;57.57
48800;BME280;34611;47.964;7.982;2023-04-15T23:20:52;96801.34;;;10.79;57.57
48800;BME280;34611;47.964;7.982;2023-04-15T23:27:53;96797.06;;;10.78;57.44
48800;BME280;34611;47.964;7.982;2023-04-15T23:34:53;96809.25;;;10.78;57.38
48800;BME280;34611;47.964;7.982;2023-04-15T23:41:53;96809.25;;;10.78;57.74
48800;BME280;34611;47.964;7.982;2023-04-15T23:48:53;96807.47;;;10.78;57.53
48800;BME280;34611;47.964;7.982;2023-04-15T23:55:54;96808.28;;;10.79;57.52
